createdAt,value
2022-09-15T00:00:18.265Z,94778.22
2022-09-15T00:03:01.719Z,94787.41
2022-09-15T00:05:46.538Z,94790.50
2022-09-15T00:08:29.639Z,94787.13
2022-09-15T00:11:17.365Z,94785.81
2022-09-15T00:14:03.244Z,94779.53
2022-09-15T00:16:46.419Z,94778.19
2022-09-15T00:19:29.483Z,94792.34
2022-09-15T00:22:14.294Z,94775.31
2022-09-15T00:24:57.405Z,94786.06
2022-09-15T00:27:40.422Z,94787.66
2022-09-15T00:30:24.754Z,94793.94
2022-09-15T00:33:08.139Z,94791.00
2022-09-15T00:35:53.450Z,94791.84
2022-09-15T00:38:40.664Z,94794.47
2022-09-15T00:41:25.056Z,94783.44
2022-09-15T00:44:23.643Z,94787.16
2022-09-15T00:47:19.356Z,94784.72
2022-09-15T00:50:07.502Z,94776.84
2022-09-15T00:52:56.970Z,94790.16
2022-09-15T00:55:45.551Z,94797.28
2022-09-15T00:58:34.266Z,94802.50
2022-09-15T01:01:19.069Z,94798.06
2022-09-15T01:04:02.795Z,94790.22
2022-09-15T01:06:51.851Z,94786.00
2022-09-15T01:09:39.662Z,94780.19
2022-09-15T01:12:25.350Z,94785.22
2022-09-15T01:15:09.570Z,94788.56
2022-09-15T01:18:11.764Z,94785.97
2022-09-15T01:21:04.842Z,94782.59
2022-09-15T01:24:27.162Z,94784.13
2022-09-15T01:27:42.086Z,94780.72
2022-09-15T01:30:27.812Z,94775.97
2022-09-15T01:33:22.537Z,94784.06
2022-09-15T01:36:10.592Z,94770.97
2022-09-15T01:39:01.156Z,94788.25
2022-09-15T01:41:48.682Z,94788.47
2022-09-15T01:44:36.596Z,94774.84
2022-09-15T01:47:22.304Z,94786.84
2022-09-15T01:50:11.680Z,94786.38
2022-09-15T01:52:58.775Z,94795.78
2022-09-15T01:55:45.197Z,94788.41
2022-09-15T01:58:28.390Z,94782.09
2022-09-15T02:01:17.310Z,94775.81
2022-09-15T02:04:07.999Z,94784.75
2022-09-15T02:06:56.837Z,94783.66
2022-09-15T02:09:46.627Z,94766.38
2022-09-15T02:12:36.918Z,94761.63
2022-09-15T02:15:27.413Z,94769.22
2022-09-15T02:18:14.815Z,94771.84
2022-09-15T02:21:10.209Z,94763.75
2022-09-15T02:23:58.590Z,94771.28
2022-09-15T02:26:44.361Z,94765.56
2022-09-15T02:29:29.374Z,94765.84
2022-09-15T02:32:15.286Z,94761.91
2022-09-15T02:35:00.546Z,94762.97
2022-09-15T02:37:45.614Z,94757.75
2022-09-15T02:40:30.086Z,94757.00
2022-09-15T02:43:15.440Z,94761.69
2022-09-15T02:45:58.645Z,94748.84
2022-09-15T02:48:41.706Z,94750.13
2022-09-15T02:51:24.932Z,94761.91
2022-09-15T02:54:12.071Z,94761.63
2022-09-15T02:56:55.129Z,94765.28
2022-09-15T02:59:51.973Z,94760.25
2022-09-15T03:02:35.192Z,94755.00
2022-09-15T03:05:20.052Z,94765.34
2022-09-15T03:08:03.584Z,94762.53
2022-09-15T03:10:47.998Z,94761.19
2022-09-15T03:13:31.198Z,94764.91
2022-09-15T03:16:18.298Z,94768.06
2022-09-15T03:19:02.138Z,94778.69
2022-09-15T03:21:45.154Z,94779.25
2022-09-15T03:24:28.366Z,94783.47
2022-09-15T03:27:12.786Z,94788.13
2022-09-15T03:29:55.868Z,94791.75
2022-09-15T03:32:39.495Z,94795.97
2022-09-15T03:35:22.646Z,94793.34
2022-09-15T03:38:05.802Z,94791.91
2022-09-15T03:40:58.496Z,94799.03
2022-09-15T03:43:43.067Z,94798.50
2022-09-15T03:46:26.167Z,94800.06
2022-09-15T03:49:09.394Z,94796.44
2022-09-15T03:51:52.455Z,94793.78
2022-09-15T03:54:35.597Z,94798.50
2022-09-15T03:57:18.682Z,94783.31
2022-09-15T04:00:03.508Z,94778.88
2022-09-15T04:02:46.686Z,94784.59
2022-09-15T04:05:30.122Z,94791.69
2022-09-15T04:08:14.347Z,94794.28
2022-09-15T04:10:57.360Z,94794.28
2022-09-15T04:13:41.978Z,94793.81
2022-09-15T04:16:27.829Z,94795.16
2022-09-15T04:19:11.442Z,94797.25
2022-09-15T04:21:54.541Z,94793.81
2022-09-15T04:24:37.978Z,94790.72
2022-09-15T04:27:21.117Z,94776.06
2022-09-15T04:30:06.668Z,94774.22
2022-09-15T04:32:51.829Z,94779.84
2022-09-15T04:35:34.890Z,94776.69
2022-09-15T04:38:18.349Z,94784.69
2022-09-15T04:41:01.925Z,94784.72
2022-09-15T04:43:45.438Z,94785.81
2022-09-15T04:46:28.833Z,94793.50
2022-09-15T04:49:13.372Z,94785.47
2022-09-15T04:51:56.510Z,94782.06
2022-09-15T04:54:39.854Z,94785.50
2022-09-15T04:57:22.930Z,94789.50
2022-09-15T05:00:07.620Z,94793.97
2022-09-15T05:02:50.709Z,94799.78
2022-09-15T05:05:36.399Z,94791.47
2022-09-15T05:08:19.841Z,94786.22
2022-09-15T05:11:04.117Z,94780.47
2022-09-15T05:13:47.567Z,94782.06
2022-09-15T05:16:32.046Z,94783.09
2022-09-15T05:19:15.607Z,94786.78
2022-09-15T05:22:02.175Z,94768.41
2022-09-15T05:24:46.180Z,94770.00
2022-09-15T05:27:32.769Z,94765.47
2022-09-15T05:30:36.729Z,94767.53
2022-09-15T05:33:19.445Z,94770.34
2022-09-15T05:36:02.856Z,94768.75
2022-09-15T05:38:47.385Z,94772.34
2022-09-15T05:41:31.006Z,94761.94
2022-09-15T05:44:14.044Z,94756.41
2022-09-15T05:46:57.369Z,94758.13
2022-09-15T05:49:40.529Z,94753.72
2022-09-15T05:52:23.822Z,94748.28
2022-09-15T05:55:10.128Z,94738.13
2022-09-15T05:57:53.794Z,94737.91
2022-09-15T06:00:37.370Z,94735.66
2022-09-15T06:03:21.751Z,94728.03
2022-09-15T06:06:07.324Z,94722.84
2022-09-15T06:08:58.049Z,94727.63
2022-09-15T06:11:43.205Z,94719.88
2022-09-15T06:14:26.263Z,94722.81
2022-09-15T06:17:09.374Z,94736.75
2022-09-15T06:19:52.836Z,94739.63
2022-09-15T06:22:35.962Z,94751.47
2022-09-15T06:25:19.048Z,94747.94
2022-09-15T06:28:03.793Z,94754.59
2022-09-15T06:30:49.576Z,94748.63
2022-09-15T06:33:32.770Z,94716.59
2022-09-15T06:36:16.976Z,94718.56
2022-09-15T06:39:00.268Z,94724.38
2022-09-15T06:42:01.283Z,94727.91
2022-09-15T06:44:47.022Z,94724.94
2022-09-15T06:47:34.050Z,94730.53
2022-09-15T06:50:17.476Z,94737.50
2022-09-15T06:53:00.559Z,94738.41
2022-09-15T06:55:43.650Z,94744.41
2022-09-15T06:58:26.902Z,94733.59
2022-09-15T07:01:13.066Z,94744.22
2022-09-15T07:03:57.487Z,94746.03
2022-09-15T07:06:41.193Z,94759.53
2022-09-15T07:09:24.295Z,94766.09
2022-09-15T07:12:07.766Z,94762.47
2022-09-15T07:14:50.838Z,94773.81
2022-09-15T07:17:37.508Z,94782.16
2022-09-15T07:20:20.578Z,94788.16
2022-09-15T07:23:03.646Z,94783.34
2022-09-15T07:25:46.960Z,94792.94
2022-09-15T07:28:30.056Z,94783.28
2022-09-15T07:31:15.127Z,94810.38
2022-09-15T07:34:01.043Z,94810.59
2022-09-15T07:36:44.108Z,94809.53
2022-09-15T07:39:27.240Z,94822.81
2022-09-15T07:42:10.700Z,94837.31
2022-09-15T07:44:53.736Z,94823.59
2022-09-15T07:47:36.774Z,94827.63
2022-09-15T07:50:21.189Z,94820.06
2022-09-15T07:53:04.364Z,94812.22
2022-09-15T07:55:47.826Z,94810.50
2022-09-15T07:58:30.908Z,94805.19
2022-09-15T08:01:16.914Z,94793.28
2022-09-15T08:04:00.196Z,94794.84
2022-09-15T08:06:44.764Z,94799.31
2022-09-15T08:09:27.958Z,94801.53
2022-09-15T08:12:10.982Z,94803.88
2022-09-15T08:14:54.180Z,94802.78
2022-09-15T08:17:37.378Z,94803.72
2022-09-15T08:20:21.479Z,94803.94
2022-09-15T08:23:06.013Z,94801.13
2022-09-15T08:25:51.493Z,94787.88
2022-09-15T08:28:36.908Z,94790.75
2022-09-15T08:31:20.014Z,94781.09
2022-09-15T08:34:06.954Z,94769.28
2022-09-15T08:36:52.342Z,94764.19
2022-09-15T08:39:37.000Z,94768.94
2022-09-15T08:42:24.372Z,94772.28
2022-09-15T08:45:19.540Z,94761.91
2022-09-15T08:48:08.056Z,94748.50
2022-09-15T08:50:55.906Z,94756.97
2022-09-15T08:53:46.448Z,94754.75
2022-09-15T08:56:33.242Z,94745.59
2022-09-15T08:59:18.210Z,94758.91
2022-09-15T09:02:43.275Z,94754.88
2022-09-15T09:05:45.670Z,94749.03
2022-09-15T09:09:13.443Z,94740.50
2022-09-15T09:12:16.479Z,94738.50
2022-09-15T09:15:15.384Z,94742.63
2022-09-15T09:18:15.690Z,94744.31
2022-09-15T09:21:06.221Z,94740.94
2022-09-15T09:23:56.782Z,94723.22
2022-09-15T09:26:40.338Z,94721.03
2022-09-15T09:29:34.030Z,94720.69
2022-09-15T09:32:22.164Z,94713.94
2022-09-15T09:35:14.622Z,94710.38
2022-09-15T09:37:57.932Z,94700.19
2022-09-15T09:40:41.279Z,94692.69
2022-09-15T09:43:24.809Z,94684.91
2022-09-15T09:46:16.354Z,94692.34
2022-09-15T09:49:05.243Z,94687.47
2022-09-15T09:51:53.194Z,94695.03
2022-09-15T09:54:37.266Z,94691.78
2022-09-15T09:57:29.885Z,94695.44
2022-09-15T10:00:33.724Z,94694.06
2022-09-15T10:03:19.907Z,94685.38
2022-09-15T10:06:06.348Z,94691.72
2022-09-15T10:08:58.156Z,94677.84
2022-09-15T10:11:46.480Z,94679.84
2022-09-15T10:14:34.739Z,94668.84
2022-09-15T10:17:22.406Z,94669.91
2022-09-15T10:20:22.976Z,94662.78
2022-09-15T10:23:23.677Z,94666.88
2022-09-15T10:26:36.266Z,94671.03
2022-09-15T10:29:20.369Z,94677.38
2022-09-15T10:32:21.695Z,94665.66
2022-09-15T10:35:13.250Z,94665.13
2022-09-15T10:38:05.178Z,94649.84
2022-09-15T10:40:56.917Z,94652.66
2022-09-15T10:43:48.299Z,94655.59
2022-09-15T10:46:46.678Z,94654.88
2022-09-15T10:49:49.931Z,94639.22
2022-09-15T10:52:49.058Z,94648.44
2022-09-15T10:55:52.668Z,94631.00
2022-09-15T10:58:51.133Z,94628.97
2022-09-15T11:02:12.214Z,94631.53
2022-09-15T11:05:20.573Z,94610.03
2022-09-15T11:08:32.284Z,94617.22
2022-09-15T11:11:22.808Z,94619.53
2022-09-15T11:14:19.682Z,94611.06
2022-09-15T11:17:14.336Z,94612.56
2022-09-15T11:20:13.561Z,94599.59
2022-09-15T11:23:02.020Z,94590.34
2022-09-15T11:25:52.243Z,94585.22
2022-09-15T11:28:41.053Z,94589.38
2022-09-15T11:31:28.340Z,94574.91
2022-09-15T11:34:21.457Z,94577.22
2022-09-15T11:37:11.170Z,94583.03
2022-09-15T11:40:09.269Z,94569.09
2022-09-15T11:43:00.886Z,94570.97
2022-09-15T11:45:50.590Z,94575.94
2022-09-15T11:48:41.795Z,94570.56
2022-09-15T11:51:28.109Z,94563.28
2022-09-15T11:54:18.976Z,94563.97
2022-09-15T11:57:02.232Z,94561.97
2022-09-15T11:59:54.768Z,94550.44
2022-09-15T12:02:45.161Z,94538.59
2022-09-15T12:05:33.167Z,94542.06
2022-09-15T12:08:20.568Z,94534.78
2022-09-15T12:11:09.630Z,94539.03
2022-09-15T12:13:53.791Z,94526.69
2022-09-15T12:16:38.739Z,94520.50
2022-09-15T12:19:42.078Z,94513.56
2022-09-15T12:22:29.664Z,94501.63
2022-09-15T12:25:18.089Z,94507.03
2022-09-15T12:28:38.816Z,94510.50
2022-09-15T12:31:39.473Z,94512.38
2022-09-15T12:34:37.626Z,94498.38
2022-09-15T12:37:26.767Z,94498.34
2022-09-15T12:40:42.187Z,94491.78
2022-09-15T12:43:25.766Z,94493.66
2022-09-15T12:46:19.428Z,94481.59
2022-09-15T12:49:04.812Z,94478.81
2022-09-15T12:51:50.901Z,94470.50
2022-09-15T12:54:35.962Z,94469.66
2022-09-15T12:57:24.586Z,94474.59
2022-09-15T13:01:06.794Z,94470.13
2022-09-15T13:04:25.682Z,94474.19
2022-09-15T13:07:37.438Z,94474.47
2022-09-15T13:10:47.805Z,94457.31
2022-09-15T13:13:38.554Z,94461.78
2022-09-15T13:16:30.518Z,94472.56
2022-09-15T13:19:20.904Z,94463.69
2022-09-15T13:22:14.072Z,94464.81
2022-09-15T13:25:02.590Z,94470.78
2022-09-15T13:27:48.356Z,94462.19
2022-09-15T13:30:42.358Z,94455.56
2022-09-15T13:40:58.651Z,94449.41
2022-09-15T13:44:15.128Z,94444.66
2022-09-15T13:47:14.617Z,94443.09
2022-09-15T13:50:10.282Z,94438.56
2022-09-15T13:53:29.399Z,94435.41
2022-09-15T13:56:20.799Z,94437.31
2022-09-15T13:59:11.512Z,94423.31
2022-09-15T14:01:59.128Z,94418.09
2022-09-15T14:04:43.404Z,94439.09
2022-09-15T14:07:27.274Z,94434.03
2022-09-15T14:10:27.544Z,94417.22
2022-09-15T14:13:17.684Z,94423.22
2022-09-15T14:16:03.397Z,94424.66
2022-09-15T14:18:47.957Z,94428.00
2022-09-15T14:21:36.605Z,94415.31
2022-09-15T14:24:26.801Z,94429.16
2022-09-15T14:27:11.794Z,94411.50
2022-09-15T14:29:57.997Z,94423.25
2022-09-15T14:32:47.001Z,94418.28
2022-09-15T14:35:36.649Z,94416.75
2022-09-15T14:38:24.393Z,94421.38
2022-09-15T14:41:07.743Z,94423.00
2022-09-15T14:43:50.847Z,94424.91
2022-09-15T14:46:39.756Z,94422.00
2022-09-15T14:49:24.703Z,94428.25
2022-09-15T14:52:24.521Z,94434.19
2022-09-15T14:55:13.581Z,94426.72
2022-09-15T14:58:00.445Z,94422.59
2022-09-15T15:00:54.499Z,94427.13
2022-09-15T15:03:46.305Z,94416.13
2022-09-15T15:06:35.531Z,94421.94
2022-09-15T15:09:25.451Z,94421.81
2022-09-15T15:12:18.104Z,94430.16
2022-09-15T15:15:01.409Z,94423.94
2022-09-15T15:17:49.364Z,94424.94
2022-09-15T15:20:34.004Z,94414.78
2022-09-15T15:23:23.409Z,94418.84
2022-09-15T15:26:34.515Z,94409.56
2022-09-15T15:29:39.377Z,94426.75
2022-09-15T15:32:25.144Z,94418.22
2022-09-15T15:35:18.359Z,94436.19
2022-09-15T15:38:06.387Z,94430.97
2022-09-15T15:40:49.559Z,94432.50
2022-09-15T15:43:34.369Z,94443.09
2022-09-15T15:46:49.298Z,94447.59
2022-09-15T15:49:33.643Z,94448.38
2022-09-15T15:52:16.829Z,94451.44
2022-09-15T15:55:00.033Z,94452.00
2022-09-15T15:57:43.951Z,94456.75
2022-09-15T16:00:33.154Z,94464.94
2022-09-15T16:03:19.765Z,94460.13
2022-09-15T16:06:04.629Z,94465.91
2022-09-15T16:08:48.791Z,94471.72
2022-09-15T16:11:32.199Z,94469.16
2022-09-15T16:14:15.430Z,94460.59
2022-09-15T16:16:58.667Z,94464.72
2022-09-15T16:19:43.731Z,94452.75
2022-09-15T16:22:28.081Z,94450.63
2022-09-15T16:25:17.489Z,94446.22
2022-09-15T16:28:01.517Z,94444.22
2022-09-15T16:30:45.209Z,94444.47
2022-09-15T16:33:28.342Z,94448.03
2022-09-15T16:36:14.253Z,94446.03
2022-09-15T16:38:57.486Z,94445.59
2022-09-15T16:41:40.636Z,94445.03
2022-09-15T16:44:23.715Z,94451.34
2022-09-15T16:47:07.317Z,94449.56
2022-09-15T16:49:51.424Z,94442.66
2022-09-15T16:52:35.884Z,94454.47
2022-09-15T16:55:24.885Z,94459.78
2022-09-15T16:58:08.763Z,94454.88
2022-09-15T17:00:53.737Z,94457.31
2022-09-15T17:03:36.922Z,94458.00
2022-09-15T17:06:21.121Z,94456.41
2022-09-15T17:09:06.170Z,94457.09
2022-09-15T17:11:51.309Z,94468.13
2022-09-15T17:14:34.849Z,94461.88
2022-09-15T17:17:25.042Z,94460.63
2022-09-15T17:20:08.988Z,94444.41
2022-09-15T17:22:53.055Z,94451.16
2022-09-15T17:25:48.981Z,94447.16
2022-09-15T17:28:34.175Z,94450.22
2022-09-15T17:31:21.867Z,94449.25
2022-09-15T17:34:05.268Z,94447.03
2022-09-15T17:36:48.788Z,94457.94
2022-09-15T17:39:34.103Z,94469.84
2022-09-15T17:42:18.642Z,94457.78
2022-09-15T17:45:04.199Z,94466.56
2022-09-15T17:47:47.721Z,94457.56
2022-09-15T17:50:35.075Z,94477.41
2022-09-15T17:53:21.304Z,94472.91
2022-09-15T17:56:04.849Z,94481.69
2022-09-15T17:58:51.487Z,94471.28
2022-09-15T18:01:34.891Z,94477.56
2022-09-15T18:04:18.038Z,94482.88
2022-09-15T18:07:01.403Z,94490.19
2022-09-15T18:09:44.722Z,94480.53
2022-09-15T18:12:27.846Z,94484.72
2022-09-15T18:15:16.576Z,94480.78
2022-09-15T18:18:02.921Z,94476.63
2022-09-15T18:20:46.127Z,94467.75
2022-09-15T18:23:33.522Z,94481.13
2022-09-15T18:26:19.065Z,94475.06
2022-09-15T18:29:05.556Z,94472.88
2022-09-15T18:32:02.918Z,94473.06
2022-09-15T18:34:46.208Z,94464.28
2022-09-15T18:37:29.392Z,94469.88
2022-09-15T18:40:17.774Z,94464.41
2022-09-15T18:43:02.614Z,94465.19
2022-09-15T18:45:46.892Z,94466.97
2022-09-15T18:48:36.895Z,94451.47
2022-09-15T18:51:34.856Z,94456.81
2022-09-15T18:54:35.391Z,94451.97
2022-09-15T18:57:19.923Z,94442.50
2022-09-15T19:00:06.202Z,94434.53
2022-09-15T19:02:49.839Z,94426.56
2022-09-15T19:05:34.842Z,94422.38
2022-09-15T19:08:18.396Z,94423.47
2022-09-15T19:11:02.395Z,94415.34
2022-09-15T19:13:45.518Z,94421.31
2022-09-15T19:16:56.497Z,94413.84
2022-09-15T19:19:40.330Z,94410.56
2022-09-15T19:22:24.865Z,94391.84
2022-09-15T19:25:12.210Z,94410.41
2022-09-15T19:27:57.980Z,94412.44
2022-09-15T19:30:41.296Z,94403.06
2022-09-15T19:33:28.248Z,94402.94
2022-09-15T19:36:27.453Z,94408.06
2022-09-15T19:39:15.251Z,94421.63
2022-09-15T19:41:58.896Z,94413.53
2022-09-15T19:44:43.666Z,94412.75
2022-09-15T19:47:30.575Z,94415.22
2022-09-15T19:50:16.658Z,94399.19
2022-09-15T19:53:00.821Z,94392.94
2022-09-15T19:55:52.668Z,94387.03
2022-09-15T19:58:37.088Z,94386.84
2022-09-15T20:01:21.377Z,94384.84
2022-09-15T20:04:06.091Z,94370.34
2022-09-15T20:06:50.105Z,94369.56
2022-09-15T20:09:34.742Z,94357.38
2022-09-15T20:12:32.143Z,94359.09
2022-09-15T20:15:16.004Z,94367.03
2022-09-15T20:18:00.108Z,94364.38
2022-09-15T20:20:43.243Z,94371.72
2022-09-15T20:23:26.258Z,94366.72
2022-09-15T20:26:12.202Z,94352.84
2022-09-15T20:28:56.796Z,94365.19
2022-09-15T20:31:39.891Z,94361.44
2022-09-15T20:34:24.051Z,94362.69
2022-09-15T20:37:08.258Z,94375.78
2022-09-15T20:39:53.153Z,94356.78
2022-09-15T20:42:40.914Z,94363.00
2022-09-15T20:45:25.437Z,94376.59
2022-09-15T20:48:09.096Z,94386.69
2022-09-15T20:50:52.090Z,94378.34
2022-09-15T20:53:37.199Z,94380.34
2022-09-15T20:56:24.935Z,94381.25
2022-09-15T20:59:10.923Z,94378.09
2022-09-15T21:01:55.815Z,94411.22
2022-09-15T21:04:39.643Z,94394.94
2022-09-15T21:07:23.830Z,94402.94
2022-09-15T21:10:09.107Z,94419.03
2022-09-15T21:12:52.153Z,94401.25
2022-09-15T21:15:35.751Z,94419.31
2022-09-15T21:18:20.407Z,94431.69
2022-09-15T21:21:06.179Z,94438.50
2022-09-15T21:23:51.566Z,94426.75
2022-09-15T21:27:00.493Z,94425.69
2022-09-15T21:29:44.286Z,94429.03
2022-09-15T21:32:27.315Z,94424.47
2022-09-15T21:35:12.021Z,94408.63
2022-09-15T21:38:00.018Z,94428.84
2022-09-15T21:40:48.820Z,94428.34
2022-09-15T21:43:35.260Z,94412.72
2022-09-15T21:46:21.140Z,94435.00
2022-09-15T21:49:05.504Z,94412.13
2022-09-15T21:51:53.920Z,94417.44
2022-09-15T21:54:37.052Z,94433.41
2022-09-15T21:57:21.793Z,94424.03
2022-09-15T22:00:06.642Z,94432.03
2022-09-15T22:02:54.262Z,94430.19
2022-09-15T22:05:37.295Z,94465.47
2022-09-15T22:08:22.314Z,94409.38
2022-09-15T22:11:05.628Z,94399.91
2022-09-15T22:13:48.748Z,94456.88
2022-09-15T22:16:32.509Z,94427.03
2022-09-15T22:19:15.644Z,94427.03
2022-09-15T22:21:58.696Z,94440.06
2022-09-15T22:24:43.161Z,94433.63
2022-09-15T22:27:27.514Z,94408.88
2022-09-15T22:30:11.734Z,94436.78
2022-09-15T22:32:54.943Z,94445.03
2022-09-15T22:35:37.925Z,94440.50
2022-09-15T22:38:22.162Z,94447.22
2022-09-15T22:41:09.510Z,94445.78
2022-09-15T22:43:52.931Z,94417.66
2022-09-15T22:46:39.040Z,94432.50
2022-09-15T22:49:22.136Z,94460.31
2022-09-15T22:52:05.392Z,94429.63
2022-09-15T22:54:48.439Z,94410.63
2022-09-15T22:57:32.876Z,94440.53
2022-09-15T23:00:16.624Z,94438.56
2022-09-15T23:02:59.848Z,94428.59
2022-09-15T23:05:42.937Z,94433.41
2022-09-15T23:08:26.202Z,94413.16
2022-09-15T23:11:11.573Z,94412.28
2022-09-15T23:13:56.852Z,94423.69
2022-09-15T23:16:40.198Z,94414.63
2022-09-15T23:19:23.288Z,94417.56
2022-09-15T23:22:06.430Z,94423.81
2022-09-15T23:24:49.589Z,94416.72
2022-09-15T23:27:32.770Z,94415.16
2022-09-15T23:30:17.671Z,94425.97
2022-09-15T23:33:00.727Z,94414.22
2022-09-15T23:35:43.764Z,94398.06
2022-09-15T23:38:26.917Z,94415.47
2022-09-15T23:41:10.868Z,94422.16
2022-09-15T23:43:53.983Z,94406.31
2022-09-15T23:46:38.482Z,94416.03
2022-09-15T23:49:21.625Z,94419.28
2022-09-15T23:52:05.182Z,94424.50
2022-09-15T23:54:48.237Z,94416.75
2022-09-15T23:57:31.428Z,94410.13
